Time;durP1;ratioP1;P1;durP2;ratioP2;P2;SDS_P1;SDS_P2;PMS_P1;PMS_P2;Temp;Humidity;BMP_temperature;BMP_pressure;BME280_temperature;BME280_humidity;BME280_pressure;Samples;Min_cycle;Max_cycle;Signal;HPM_P1;HPM_P2
2023/10/06 00:01:42;;;;;;;5.73;3.37;;;;;;;;;;5070241;28;20469;-56
2023/10/06 00:04:09;;;;;;;5.97;3.50;;;;;;;;;;5067956;28;20428;-56
2023/10/06 00:06:37;;;;;;;5.07;3.80;;;;;;;;;;5069668;28;20929;-56
2023/10/06 00:09:07;;;;;;;6.23;4.20;;;;;;;;;;5074369;28;20623;-57
2023/10/06 00:11:37;;;;;;;6.27;3.90;;;;;;;;;;5071132;28;21049;-55
2023/10/06 00:14:18;;;;;;;7.50;4.50;;;;;;;;;;5071411;28;20507;-56
2023/10/06 00:16:46;;;;;;;5.87;3.93;;;;;;;;;;5070703;28;20440;-56
2023/10/06 00:19:26;;;;;;;7.13;4.40;;;;;;;;;;5071786;28;20444;-56
2023/10/06 00:22:08;;;;;;;6.53;4.03;;;;;;;;;;5071282;28;20938;-57
2023/10/06 00:24:37;;;;;;;7.03;3.40;;;;;;;;;;5071280;28;20440;-57
2023/10/06 00:27:10;;;;;;;12.90;4.83;;;;;;;;;;5071561;28;20527;-57
2023/10/06 00:29:38;;;;;;;7.50;4.33;;;;;;;;;;5063312;28;20495;-56
2023/10/06 00:34:47;;;;;;;6.33;4.80;;;;;;;;;;5068356;28;20555;-56
2023/10/06 00:37:15;;;;;;;6.27;4.60;;;;;;;;;;5067383;28;20451;-56
2023/10/06 00:39:43;;;;;;;4.50;3.80;;;;;;;;;;5058035;28;20464;-56
2023/10/06 00:42:15;;;;;;;5.50;4.30;;;;;;;;;;5067368;28;20547;-55
2023/10/06 00:44:45;;;;;;;5.70;4.20;;;;;;;;;;5069427;28;20444;-57
2023/10/06 00:47:13;;;;;;;7.20;4.40;;;;;;;;;;5070786;28;20783;-56
2023/10/06 00:49:40;;;;;;;5.27;4.07;;;;;;;;;;5066994;28;20540;-57
2023/10/06 00:52:11;;;;;;;5.40;4.40;;;;;;;;;;5064743;28;20477;-56
2023/10/06 00:54:39;;;;;;;6.17;3.93;;;;;;;;;;5063975;28;21005;-57
2023/10/06 00:57:09;;;;;;;5.10;3.60;;;;;;;;;;5069426;28;20455;-57
2023/10/06 00:59:38;;;;;;;5.97;4.50;;;;;;;;;;5069984;28;20448;-56
2023/10/06 01:02:08;;;;;;;5.77;4.70;;;;;;;;;;5056021;28;20465;-55
2023/10/06 01:04:38;;;;;;;5.97;4.70;;;;;;;;;;5070058;28;20445;-56
2023/10/06 01:07:08;;;;;;;6.17;4.80;;;;;;;;;;5065056;28;20867;-57
2023/10/06 01:09:35;;;;;;;6.13;4.73;;;;;;;;;;5068584;28;20476;-57
2023/10/06 01:12:06;;;;;;;5.87;4.00;;;;;;;;;;5070365;28;20460;-55
2023/10/06 01:14:35;;;;;;;6.07;4.70;;;;;;;;;;5068827;28;20512;-57
2023/10/06 01:17:14;;;;;;;4.80;4.20;;;;;;;;;;5070564;28;20452;-57
2023/10/06 01:19:47;;;;;;;6.90;4.50;;;;;;;;;;5070079;28;20506;-56
2023/10/06 01:22:22;;;;;;;8.67;4.90;;;;;;;;;;5070426;28;20464;-57
2023/10/06 01:24:51;;;;;;;5.93;4.67;;;;;;;;;;5065521;28;21004;-55
2023/10/06 01:27:19;;;;;;;7.77;4.87;;;;;;;;;;5062737;28;20537;-56
2023/10/06 01:29:51;;;;;;;6.20;4.70;;;;;;;;;;5069626;28;20954;-57
2023/10/06 01:32:19;;;;;;;5.53;5.03;;;;;;;;;;5067773;28;20469;-56
2023/10/06 01:34:50;;;;;;;5.80;5.20;;;;;;;;;;5069735;28;20503;-55
2023/10/06 01:37:20;;;;;;;10.83;6.17;;;;;;;;;;5069129;28;20456;-56
2023/10/06 01:39:48;;;;;;;5.90;4.30;;;;;;;;;;5064552;28;20444;-55
2023/10/06 01:42:20;;;;;;;5.17;4.47;;;;;;;;;;5066692;28;20518;-55
2023/10/06 01:44:47;;;;;;;6.40;5.40;;;;;;;;;;5070238;28;20441;-56
2023/10/06 01:47:18;;;;;;;5.90;4.57;;;;;;;;;;5067898;28;20493;-56
2023/10/06 01:49:47;;;;;;;7.87;4.77;;;;;;;;;;5069136;28;20487;-55
2023/10/06 01:52:19;;;;;;;6.43;4.90;;;;;;;;;;5064247;28;20994;-56
2023/10/06 01:54:47;;;;;;;5.77;4.97;;;;;;;;;;5068139;28;20857;-55
2023/10/06 01:57:17;;;;;;;6.50;4.33;;;;;;;;;;5066476;28;20526;-55
2023/10/06 01:59:45;;;;;;;6.50;4.37;;;;;;;;;;5069515;28;20453;-56
2023/10/06 02:02:13;;;;;;;5.83;5.33;;;;;;;;;;5068183;28;20533;-56
2023/10/06 02:04:45;;;;;;;4.80;4.40;;;;;;;;;;5067576;28;20544;-56
2023/10/06 02:07:12;;;;;;;5.97;4.40;;;;;;;;;;5062376;28;20452;-57
2023/10/06 02:09:39;;;;;;;5.70;4.57;;;;;;;;;;5058852;28;21131;-56
2023/10/06 02:12:09;;;;;;;5.13;4.30;;;;;;;;;;5065623;28;20537;-56
2023/10/06 02:14:36;;;;;;;5.30;4.80;;;;;;;;;;5069144;28;20567;-56
2023/10/06 02:17:06;;;;;;;7.20;5.50;;;;;;;;;;5070311;28;20543;-54
2023/10/06 02:19:34;;;;;;;6.93;5.30;;;;;;;;;;5069146;28;20459;-55
2023/10/06 02:22:06;;;;;;;7.50;5.50;;;;;;;;;;5069663;28;20476;-55
2023/10/06 02:24:33;;;;;;;6.53;4.90;;;;;;;;;;5066646;28;20834;-56
2023/10/06 02:27:01;;;;;;;5.93;4.80;;;;;;;;;;5068487;28;20540;-56
2023/10/06 02:29:29;;;;;;;5.73;4.40;;;;;;;;;;5066583;28;20506;-55
2023/10/06 02:32:01;;;;;;;6.80;4.70;;;;;;;;;;5061392;28;20544;-56
2023/10/06 02:34:32;;;;;;;6.97;4.27;;;;;;;;;;5067722;28;20555;-55
2023/10/06 02:37:00;;;;;;;5.90;4.47;;;;;;;;;;5061176;28;20456;-55
2023/10/06 02:39:31;;;;;;;5.80;4.93;;;;;;;;;;5066944;28;20455;-57
2023/10/06 02:42:00;;;;;;;5.87;4.80;;;;;;;;;;5067087;28;20468;-57
2023/10/06 02:44:30;;;;;;;5.30;4.50;;;;;;;;;;5069503;28;20460;-56
2023/10/06 02:46:59;;;;;;;8.30;5.10;;;;;;;;;;5067270;28;20543;-57
2023/10/06 02:49:35;;;;;;;5.93;5.10;;;;;;;;;;5073213;28;20448;-56
2023/10/06 02:52:06;;;;;;;7.47;4.70;;;;;;;;;;5069547;28;20503;-56
2023/10/06 02:54:34;;;;;;;6.40;5.30;;;;;;;;;;5072554;28;20511;-56
2023/10/06 02:57:04;;;;;;;5.50;4.40;;;;;;;;;;5068418;28;20455;-55
2023/10/06 02:59:35;;;;;;;7.30;5.87;;;;;;;;;;5072752;28;20448;-57
2023/10/06 03:02:06;;;;;;;5.40;4.70;;;;;;;;;;5069221;28;20525;-57
2023/10/06 03:04:36;;;;;;;7.70;5.20;;;;;;;;;;5072966;28;20527;-55
2023/10/06 03:07:11;;;;;;;7.20;5.77;;;;;;;;;;5067492;28;20449;-55
2023/10/06 03:09:44;;;;;;;7.10;5.60;;;;;;;;;;5063349;28;20872;-56
2023/10/06 03:12:15;;;;;;;6.63;5.83;;;;;;;;;;5062296;28;20869;-57
2023/10/06 03:14:48;;;;;;;6.70;4.60;;;;;;;;;;5063310;28;20484;-57
2023/10/06 03:17:17;;;;;;;5.90;5.30;;;;;;;;;;5069082;28;20936;-56
2023/10/06 03:19:44;;;;;;;5.80;5.13;;;;;;;;;;5071162;28;20452;-56
2023/10/06 03:22:13;;;;;;;6.03;5.13;;;;;;;;;;5070713;28;20555;-55
2023/10/06 03:24:58;;;;;;;7.47;6.27;;;;;;;;;;5068740;28;20988;-56
2023/10/06 03:27:25;;;;;;;7.43;5.53;;;;;;;;;;5070685;28;20449;-56
2023/10/06 03:29:55;;;;;;;6.00;5.40;;;;;;;;;;5071032;28;20566;-55
2023/10/06 03:32:32;;;;;;;7.70;5.60;;;;;;;;;;5068536;28;20500;-57
2023/10/06 03:35:08;;;;;;;7.80;5.77;;;;;;;;;;5070895;28;20525;-56
2023/10/06 03:37:38;;;;;;;6.60;5.90;;;;;;;;;;5072278;28;20480;-58
2023/10/06 03:40:22;;;;;;;7.00;5.80;;;;;;;;;;5070500;28;20452;-56
2023/10/06 03:42:50;;;;;;;7.00;6.07;;;;;;;;;;5071568;28;20475;-55
2023/10/06 03:45:26;;;;;;;6.70;6.00;;;;;;;;;;5071886;28;20444;-56
2023/10/06 03:47:54;;;;;;;6.77;5.43;;;;;;;;;;5065121;28;20459;-56
2023/10/06 03:50:21;;;;;;;7.57;6.87;;;;;;;;;;5067106;28;20464;-57
2023/10/06 03:52:48;;;;;;;8.83;6.57;;;;;;;;;;5065375;28;20505;-57
2023/10/06 03:55:17;;;;;;;7.80;6.30;;;;;;;;;;5067989;28;20476;-57
2023/10/06 03:57:45;;;;;;;7.47;6.23;;;;;;;;;;5070834;28;20498;-55
2023/10/06 04:00:19;;;;;;;7.03;6.33;;;;;;;;;;5067794;28;20457;-56
2023/10/06 04:02:48;;;;;;;7.33;5.63;;;;;;;;;;5064528;28;20464;-56
2023/10/06 04:05:18;;;;;;;7.60;6.40;;;;;;;;;;5071560;28;20455;-56
2023/10/06 04:07:46;;;;;;;7.63;6.83;;;;;;;;;;5071020;28;20543;-56
2023/10/06 04:10:16;;;;;;;9.60;6.83;;;;;;;;;;5071420;28;20965;-55
2023/10/06 04:12:44;;;;;;;8.60;6.17;;;;;;;;;;5067238;28;20529;-56
2023/10/06 04:15:14;;;;;;;8.43;7.57;;;;;;;;;;5071582;28;20559;-57
2023/10/06 04:17:43;;;;;;;7.30;5.90;;;;;;;;;;5071640;28;20531;-58
2023/10/06 04:20:14;;;;;;;6.53;5.90;;;;;;;;;;5068456;28;20520;-56
2023/10/06 04:22:42;;;;;;;8.60;6.20;;;;;;;;;;5070652;28;20464;-56
2023/10/06 04:25:12;;;;;;;10.90;6.97;;;;;;;;;;5071203;28;20527;-57
2023/10/06 04:27:39;;;;;;;9.10;6.70;;;;;;;;;;5071438;28;20450;-56
2023/10/06 04:30:12;;;;;;;9.13;7.30;;;;;;;;;;5070393;28;20464;-57
2023/10/06 04:32:39;;;;;;;7.37;6.07;;;;;;;;;;5070238;28;20470;-56
2023/10/06 04:35:19;;;;;;;9.83;6.50;;;;;;;;;;5070611;28;20480;-56
2023/10/06 04:37:47;;;;;;;7.47;6.17;;;;;;;;;;5063818;28;20456;-57
2023/10/06 04:40:20;;;;;;;7.87;5.83;;;;;;;;;;5070047;28;20509;-56
2023/10/06 04:42:47;;;;;;;7.40;5.80;;;;;;;;;;5070952;28;20563;-56
2023/10/06 04:45:14;;;;;;;9.00;6.97;;;;;;;;;;5070938;28;20513;-57
2023/10/06 04:47:42;;;;;;;7.90;6.10;;;;;;;;;;5070977;28;20444;-56
2023/10/06 04:50:11;;;;;;;6.90;6.17;;;;;;;;;;5064359;28;20476;-56
2023/10/06 04:52:39;;;;;;;7.70;6.63;;;;;;;;;;5091028;22;20820;-55
2023/10/06 04:55:12;;;;;;;7.20;6.50;;;;;;;;;;5091064;28;20897;-54
2023/10/06 04:57:40;;;;;;;7.20;6.50;;;;;;;;;;5091027;28;20621;-56
2023/10/06 05:00:13;;;;;;;8.07;6.63;;;;;;;;;;5091547;28;20917;-55
2023/10/06 05:02:43;;;;;;;7.60;6.20;;;;;;;;;;5091111;28;20468;-52
2023/10/06 05:05:11;;;;;;;7.23;6.50;;;;;;;;;;5090660;28;20467;-55
2023/10/06 05:07:39;;;;;;;6.97;5.30;;;;;;;;;;5089786;28;20435;-54
2023/10/06 05:10:10;;;;;;;7.60;6.27;;;;;;;;;;5090639;28;21100;-54
2023/10/06 05:12:38;;;;;;;5.63;5.10;;;;;;;;;;5090514;28;20459;-55
2023/10/06 05:15:09;;;;;;;6.37;5.00;;;;;;;;;;5085736;28;20555;-54
2023/10/06 05:17:36;;;;;;;5.53;5.00;;;;;;;;;;5090744;28;20450;-55
2023/10/06 05:20:04;;;;;;;5.80;4.00;;;;;;;;;;5090206;28;20440;-55
2023/10/06 05:22:31;;;;;;;5.43;3.70;;;;;;;;;;5090359;28;20536;-55
2023/10/06 05:25:01;;;;;;;4.03;3.60;;;;;;;;;;5090549;28;20447;-55
2023/10/06 05:27:30;;;;;;;6.87;4.00;;;;;;;;;;5089555;28;20612;-56
2023/10/06 05:29:57;;;;;;;5.80;4.87;;;;;;;;;;5088825;28;20451;-55
2023/10/06 05:32:25;;;;;;;7.23;5.40;;;;;;;;;;5088763;28;20996;-55
2023/10/06 05:34:52;;;;;;;8.60;6.40;;;;;;;;;;5088890;28;20474;-55
2023/10/06 05:37:19;;;;;;;7.10;5.93;;;;;;;;;;5088578;28;20790;-55
2023/10/06 05:39:47;;;;;;;9.60;5.30;;;;;;;;;;5088602;28;20443;-56
2023/10/06 05:42:15;;;;;;;7.17;5.10;;;;;;;;;;5088692;28;20544;-55
2023/10/06 05:44:43;;;;;;;5.97;4.80;;;;;;;;;;5090548;28;20469;-55
2023/10/06 05:47:10;;;;;;;7.83;4.90;;;;;;;;;;5089005;28;20467;-54
2023/10/06 05:49:47;;;;;;;8.90;6.07;;;;;;;;;;5089143;28;20945;-54
2023/10/06 05:52:14;;;;;;;5.17;4.67;;;;;;;;;;5089563;28;21089;-54
2023/10/06 05:54:43;;;;;;;10.80;6.83;;;;;;;;;;5086966;28;20479;-54
2023/10/06 05:57:12;;;;;;;7.27;5.87;;;;;;;;;;5090341;28;20530;-55
2023/10/06 05:59:39;;;;;;;6.00;5.30;;;;;;;;;;5090256;28;20809;-55
2023/10/06 06:02:09;;;;;;;6.37;5.23;;;;;;;;;;5086632;28;20988;-54
2023/10/06 06:04:38;;;;;;;7.90;5.20;;;;;;;;;;5084799;28;20444;-54
2023/10/06 06:07:08;;;;;;;5.73;4.90;;;;;;;;;;5089609;28;20859;-54
2023/10/06 06:09:35;;;;;;;6.70;4.63;;;;;;;;;;5090005;28;20480;-54
2023/10/06 06:12:02;;;;;;;7.67;4.90;;;;;;;;;;5088193;28;21057;-56
2023/10/06 06:14:31;;;;;;;7.40;4.50;;;;;;;;;;5089638;28;20864;-54
2023/10/06 06:17:00;;;;;;;4.90;4.30;;;;;;;;;;5084997;28;20807;-57
2023/10/06 06:19:28;;;;;;;5.80;4.30;;;;;;;;;;5080390;28;20454;-55
2023/10/06 06:21:56;;;;;;;5.10;4.60;;;;;;;;;;5083217;28;20472;-56
2023/10/06 06:24:23;;;;;;;6.40;4.80;;;;;;;;;;5083561;28;20564;-56
2023/10/06 06:26:50;;;;;;;5.90;4.50;;;;;;;;;;5086069;28;20484;-54
2023/10/06 06:29:19;;;;;;;6.93;5.93;;;;;;;;;;5085901;28;20443;-55
2023/10/06 06:31:47;;;;;;;7.60;6.90;;;;;;;;;;5082482;28;20444;-55
2023/10/06 06:34:14;;;;;;;8.23;7.20;;;;;;;;;;5079335;28;20448;-53
2023/10/06 06:36:45;;;;;;;10.13;7.40;;;;;;;;;;5086975;28;20533;-56
2023/10/06 06:39:12;;;;;;;7.93;7.20;;;;;;;;;;5084048;28;21077;-54
2023/10/06 06:41:39;;;;;;;8.20;7.10;;;;;;;;;;5079729;28;20915;-58
2023/10/06 06:44:07;;;;;;;7.23;5.93;;;;;;;;;;5075624;28;20529;-56
2023/10/06 06:46:35;;;;;;;5.37;4.77;;;;;;;;;;5079088;28;20577;-54
2023/10/06 06:49:02;;;;;;;8.73;4.73;;;;;;;;;;5080046;28;20494;-56
2023/10/06 06:51:30;;;;;;;7.50;4.00;;;;;;;;;;5084255;28;20447;-55
2023/10/06 06:53:59;;;;;;;5.07;2.83;;;;;;;;;;5079663;28;20480;-54
2023/10/06 06:56:28;;;;;;;4.53;3.10;;;;;;;;;;5083565;28;20604;-57
2023/10/06 06:58:56;;;;;;;4.63;2.83;;;;;;;;;;5082701;28;20494;-57
2023/10/06 07:01:23;;;;;;;4.60;2.87;;;;;;;;;;5084919;28;20518;-55
2023/10/06 07:03:51;;;;;;;3.97;3.30;;;;;;;;;;5077425;28;20548;-57
2023/10/06 07:06:18;;;;;;;5.60;3.50;;;;;;;;;;5087537;28;20614;-54
2023/10/06 07:08:46;;;;;;;3.37;3.00;;;;;;;;;;5086353;28;20520;-54
2023/10/06 07:11:15;;;;;;;4.40;3.87;;;;;;;;;;5079507;28;20456;-55
2023/10/06 07:13:45;;;;;;;4.73;3.57;;;;;;;;;;5088652;28;20891;-54
2023/10/06 07:16:14;;;;;;;4.20;2.90;;;;;;;;;;5088344;28;20487;-56
2023/10/06 07:18:41;;;;;;;4.37;3.17;;;;;;;;;;5074400;28;20455;-56
2023/10/06 07:21:09;;;;;;;4.70;3.20;;;;;;;;;;5077494;28;20488;-56
2023/10/06 07:23:37;;;;;;;6.70;3.43;;;;;;;;;;5072423;28;21186;-54
2023/10/06 07:26:10;;;;;;;3.50;3.10;;;;;;;;;;5069158;28;20545;-56
2023/10/06 07:28:39;;;;;;;4.20;3.27;;;;;;;;;;5068883;28;21128;-55
2023/10/06 07:31:10;;;;;;;4.33;3.17;;;;;;;;;;5069695;28;20819;-56
2023/10/06 07:33:38;;;;;;;3.50;2.90;;;;;;;;;;5074456;28;20916;-57
2023/10/06 07:36:13;;;;;;;4.97;3.33;;;;;;;;;;5073885;28;20515;-56
2023/10/06 07:38:41;;;;;;;4.20;3.33;;;;;;;;;;5071242;28;20892;-56
2023/10/06 07:41:09;;;;;;;4.20;2.90;;;;;;;;;;5070115;28;20515;-58
2023/10/06 07:43:37;;;;;;;3.70;2.60;;;;;;;;;;5069721;28;20843;-55
2023/10/06 07:46:07;;;;;;;5.10;2.80;;;;;;;;;;5072243;28;20458;-55
2023/10/06 07:48:37;;;;;;;3.40;2.80;;;;;;;;;;5072571;28;20938;-57
2023/10/06 07:51:06;;;;;;;4.43;2.70;;;;;;;;;;5069465;28;20675;-55
2023/10/06 07:53:35;;;;;;;5.53;2.93;;;;;;;;;;5069820;28;20945;-56
2023/10/06 07:56:06;;;;;;;3.63;2.63;;;;;;;;;;5069753;28;20530;-55
2023/10/06 07:58:34;;;;;;;4.40;2.77;;;;;;;;;;5070271;28;20453;-55
2023/10/06 08:01:02;;;;;;;3.60;2.70;;;;;;;;;;5070740;28;20448;-57
2023/10/06 08:03:32;;;;;;;3.77;3.10;;;;;;;;;;5077384;28;20464;-57
2023/10/06 08:06:02;;;;;;;3.30;2.43;;;;;;;;;;5073016;28;20444;-58
2023/10/06 08:08:29;;;;;;;3.63;2.70;;;;;;;;;;5071851;28;20445;-56
2023/10/06 08:10:57;;;;;;;4.00;3.50;;;;;;;;;;5070262;28;20440;-55
2023/10/06 08:13:25;;;;;;;3.90;3.10;;;;;;;;;;5069339;28;20472;-56
2023/10/06 08:15:52;;;;;;;4.17;3.20;;;;;;;;;;5069328;28;20480;-57
2023/10/06 08:18:19;;;;;;;5.83;3.17;;;;;;;;;;5070061;28;20468;-56
2023/10/06 08:20:48;;;;;;;4.53;3.10;;;;;;;;;;5076262;28;20943;-59
2023/10/06 08:23:16;;;;;;;3.97;3.00;;;;;;;;;;5068231;28;20468;-57
2023/10/06 08:25:44;;;;;;;3.67;2.43;;;;;;;;;;5068786;28;20515;-55
2023/10/06 08:28:12;;;;;;;4.13;3.40;;;;;;;;;;5068675;28;20466;-58
2023/10/06 08:30:40;;;;;;;5.07;3.77;;;;;;;;;;5074919;28;20454;-56
2023/10/06 08:33:09;;;;;;;7.87;4.00;;;;;;;;;;5078627;28;20465;-58
2023/10/06 08:35:36;;;;;;;4.73;2.90;;;;;;;;;;5070703;28;20484;-56
2023/10/06 08:38:07;;;;;;;4.23;3.10;;;;;;;;;;5070168;28;20540;-55
2023/10/06 08:40:37;;;;;;;4.10;2.93;;;;;;;;;;5082816;28;20454;-57
2023/10/06 08:43:07;;;;;;;3.90;3.13;;;;;;;;;;5085882;28;20456;-55
2023/10/06 08:45:40;;;;;;;5.37;3.40;;;;;;;;;;5087553;28;20539;-55
2023/10/06 08:48:10;;;;;;;6.13;3.50;;;;;;;;;;5083120;28;20961;-56
2023/10/06 08:50:38;;;;;;;3.80;3.10;;;;;;;;;;5087739;28;20439;-54
2023/10/06 08:53:09;;;;;;;5.30;3.20;;;;;;;;;;5090368;28;20863;-56
2023/10/06 08:55:38;;;;;;;4.73;3.60;;;;;;;;;;5090223;28;21084;-55
2023/10/06 08:58:07;;;;;;;5.97;3.57;;;;;;;;;;5081688;28;20543;-57
2023/10/06 09:00:36;;;;;;;5.67;4.33;;;;;;;;;;5088685;28;20526;-56
2023/10/06 09:03:07;;;;;;;5.30;3.37;;;;;;;;;;5082805;28;20833;-56
2023/10/06 09:05:36;;;;;;;5.07;3.10;;;;;;;;;;5087901;28;20447;-55
2023/10/06 09:08:05;;;;;;;4.60;3.20;;;;;;;;;;5081920;28;20538;-57
2023/10/06 09:10:34;;;;;;;3.80;2.80;;;;;;;;;;5086594;28;20474;-56
2023/10/06 09:13:02;;;;;;;5.37;3.03;;;;;;;;;;5088966;28;20455;-55
2023/10/06 09:15:30;;;;;;;3.50;2.70;;;;;;;;;;5089761;28;20447;-56
2023/10/06 09:17:57;;;;;;;4.03;2.80;;;;;;;;;;5090292;28;20493;-56
2023/10/06 09:20:30;;;;;;;5.70;3.47;;;;;;;;;;5087163;28;20444;-56
2023/10/06 09:22:58;;;;;;;4.50;3.00;;;;;;;;;;5085878;28;20559;-55
2023/10/06 09:25:26;;;;;;;6.10;3.73;;;;;;;;;;5080292;28;20451;-55
2023/10/06 09:28:04;;;;;;;3.93;3.10;;;;;;;;;;5086366;28;20845;-57
2023/10/06 09:30:32;;;;;;;3.67;2.50;;;;;;;;;;5079928;28;20474;-55
2023/10/06 09:33:03;;;;;;;3.63;3.10;;;;;;;;;;5086346;28;20459;-56
2023/10/06 09:35:30;;;;;;;4.10;3.20;;;;;;;;;;5085716;28;20526;-56
2023/10/06 09:38:10;;;;;;;4.30;2.90;;;;;;;;;;5081253;28;20448;-55
2023/10/06 09:40:42;;;;;;;5.83;3.77;;;;;;;;;;5080583;28;20440;-55
2023/10/06 09:43:13;;;;;;;4.20;3.10;;;;;;;;;;5082188;28;20779;-56
2023/10/06 09:45:42;;;;;;;5.10;3.20;;;;;;;;;;5089201;28;20636;-55
2023/10/06 09:48:14;;;;;;;4.90;3.67;;;;;;;;;;5082957;28;20958;-55
2023/10/06 09:50:42;;;;;;;5.23;3.67;;;;;;;;;;5082030;28;20447;-55
2023/10/06 09:53:13;;;;;;;5.40;3.13;;;;;;;;;;5078827;28;20563;-56
2023/10/06 09:55:41;;;;;;;4.47;3.07;;;;;;;;;;5080749;28;20531;-56
2023/10/06 09:58:09;;;;;;;5.80;3.20;;;;;;;;;;5076825;28;20524;-56
2023/10/06 10:00:40;;;;;;;6.60;3.70;;;;;;;;;;5080619;28;20994;-55
2023/10/06 10:03:07;;;;;;;4.47;3.60;;;;;;;;;;5079047;28;20463;-57
2023/10/06 10:05:38;;;;;;;4.27;3.03;;;;;;;;;;5082933;28;20444;-55
2023/10/06 10:08:05;;;;;;;4.00;3.20;;;;;;;;;;5077009;28;20468;-55
2023/10/06 10:10:34;;;;;;;4.87;3.13;;;;;;;;;;5081278;28;20446;-56
2023/10/06 10:13:19;;;;;;;5.17;3.60;;;;;;;;;;5080185;28;20488;-55
2023/10/06 10:15:54;;;;;;;5.10;3.67;;;;;;;;;;5079166;28;20442;-57
2023/10/06 10:18:27;;;;;;;4.10;3.27;;;;;;;;;;5081887;28;20439;-56
2023/10/06 10:20:56;;;;;;;3.30;2.83;;;;;;;;;;5080273;28;20436;-55
2023/10/06 10:23:24;;;;;;;4.53;3.20;;;;;;;;;;5081834;28;20898;-56
2023/10/06 10:25:51;;;;;;;6.33;3.70;;;;;;;;;;5080574;28;20522;-58
2023/10/06 10:28:20;;;;;;;5.30;3.40;;;;;;;;;;5082002;28;20522;-55
2023/10/06 10:30:56;;;;;;;7.53;3.70;;;;;;;;;;5078655;28;20810;-58
2023/10/06 10:33:24;;;;;;;5.20;3.27;;;;;;;;;;5071937;28;20561;-55
2023/10/06 10:36:18;;;;;;;4.90;3.63;;;;;;;;;;5090144;28;20439;-55
2023/10/06 10:38:46;;;;;;;4.57;3.33;;;;;;;;;;5054317;28;20777;-57
2023/10/06 10:41:15;;;;;;;5.00;3.60;;;;;;;;;;5089642;28;20435;-55
2023/10/06 10:43:45;;;;;;;4.33;3.00;;;;;;;;;;5089872;28;20961;-55
2023/10/06 10:46:13;;;;;;;5.07;3.77;;;;;;;;;;5078596;28;20435;-58
2023/10/06 10:48:47;;;;;;;8.17;3.70;;;;;;;;;;5077263;28;20439;-56
2023/10/06 10:51:15;;;;;;;5.17;3.80;;;;;;;;;;5076575;28;21011;-54
2023/10/06 10:53:43;;;;;;;4.83;3.67;;;;;;;;;;5126728;22;20637;-57
2023/10/06 10:56:14;;;;;;;6.40;3.90;;;;;;;;;;5068936;28;20480;-58
2023/10/06 10:58:54;;;;;;;4.77;4.27;;;;;;;;;;5068684;28;20472;-58
2023/10/06 11:01:27;;;;;;;6.20;4.00;;;;;;;;;;5068458;28;20571;-56
2023/10/06 11:04:14;;;;;;;6.17;4.10;;;;;;;;;;5051427;28;20472;-57
2023/10/06 11:06:42;;;;;;;4.60;4.03;;;;;;;;;;5051178;28;20454;-58
2023/10/06 11:09:25;;;;;;;4.07;3.53;;;;;;;;;;5053497;28;20935;-57
2023/10/06 11:11:55;;;;;;;4.40;3.20;;;;;;;;;;5051192;28;20479;-57
2023/10/06 11:14:22;;;;;;;4.83;4.33;;;;;;;;;;5045169;28;20473;-57
2023/10/06 11:16:52;;;;;;;5.20;4.30;;;;;;;;;;5061914;28;20476;-55
2023/10/06 11:19:20;;;;;;;4.57;3.40;;;;;;;;;;5069188;28;20539;-56
2023/10/06 11:21:48;;;;;;;5.43;3.77;;;;;;;;;;5065406;28;21022;-55
2023/10/06 11:24:27;;;;;;;6.27;3.87;;;;;;;;;;5067213;28;20539;-54
2023/10/06 11:26:54;;;;;;;4.90;2.97;;;;;;;;;;5069660;28;20453;-55
2023/10/06 11:29:29;;;;;;;5.90;3.57;;;;;;;;;;5063480;28;20453;-55
2023/10/06 11:31:59;;;;;;;3.80;2.90;;;;;;;;;;5068694;28;20459;-56
2023/10/06 11:34:26;;;;;;;4.87;3.77;;;;;;;;;;5069067;28;20452;-56
2023/10/06 11:36:54;;;;;;;5.00;3.13;;;;;;;;;;5069316;28;20570;-54
2023/10/06 11:39:24;;;;;;;5.53;3.63;;;;;;;;;;5068854;28;20451;-53
2023/10/06 11:41:54;;;;;;;5.57;4.00;;;;;;;;;;5069032;28;20551;-55
2023/10/06 11:44:21;;;;;;;5.93;3.93;;;;;;;;;;5061448;28;20673;-56
2023/10/06 11:46:49;;;;;;;5.87;4.07;;;;;;;;;;5069159;28;20452;-56
2023/10/06 11:49:20;;;;;;;4.70;3.50;;;;;;;;;;5068800;28;20613;-54
2023/10/06 11:51:49;;;;;;;6.10;4.07;;;;;;;;;;5068110;28;20510;-55
2023/10/06 11:54:16;;;;;;;4.77;3.03;;;;;;;;;;5068179;28;20476;-54
2023/10/06 11:56:50;;;;;;;4.60;3.10;;;;;;;;;;5068282;28;20561;-54
2023/10/06 11:59:22;;;;;;;4.30;3.60;;;;;;;;;;5068561;28;20452;-54
2023/10/06 12:01:49;;;;;;;3.90;3.50;;;;;;;;;;5068348;28;20518;-54
2023/10/06 12:04:31;;;;;;;6.03;3.70;;;;;;;;;;5053753;28;20493;-55
2023/10/06 12:07:00;;;;;;;4.57;3.17;;;;;;;;;;5068534;28;20930;-55
2023/10/06 12:09:30;;;;;;;6.30;3.87;;;;;;;;;;5066043;28;20641;-54
2023/10/06 12:11:59;;;;;;;4.63;3.57;;;;;;;;;;5067980;28;20639;-55
2023/10/06 12:14:26;;;;;;;4.83;3.80;;;;;;;;;;5059149;28;20449;-55
2023/10/06 12:16:54;;;;;;;3.90;3.40;;;;;;;;;;5067365;28;21021;-55
2023/10/06 12:19:23;;;;;;;5.43;3.70;;;;;;;;;;5067300;28;20561;-53
2023/10/06 12:21:52;;;;;;;4.40;3.40;;;;;;;;;;5067915;28;20205;-53
2023/10/06 12:24:22;;;;;;;6.50;4.30;;;;;;;;;;5067957;28;20456;-53
2023/10/06 12:26:49;;;;;;;4.00;3.60;;;;;;;;;;5060504;28;20507;-54
2023/10/06 12:29:17;;;;;;;4.50;3.87;;;;;;;;;;5067905;28;20955;-53
2023/10/06 12:31:46;;;;;;;4.70;3.30;;;;;;;;;;5067897;28;20531;-54
2023/10/06 12:34:15;;;;;;;4.87;4.00;;;;;;;;;;5067786;28;20755;-56
2023/10/06 12:36:47;;;;;;;7.13;3.53;;;;;;;;;;5068003;28;20476;-55
2023/10/06 12:39:17;;;;;;;5.00;3.57;;;;;;;;;;5067876;28;20444;-54
2023/10/06 12:41:47;;;;;;;5.23;3.80;;;;;;;;;;5067470;28;20450;-54
2023/10/06 12:44:15;;;;;;;4.00;3.13;;;;;;;;;;5061375;28;20471;-55
2023/10/06 12:46:42;;;;;;;4.70;2.83;;;;;;;;;;5067355;28;20478;-55
2023/10/06 12:49:09;;;;;;;3.90;3.50;;;;;;;;;;5067574;28;20916;-54
2023/10/06 12:51:37;;;;;;;4.53;2.83;;;;;;;;;;5067073;28;20948;-54
2023/10/06 12:54:06;;;;;;;4.53;3.70;;;;;;;;;;5067477;28;20500;-54
2023/10/06 12:56:35;;;;;;;7.33;3.77;;;;;;;;;;5062473;28;20532;-56
2023/10/06 12:59:03;;;;;;;3.93;3.10;;;;;;;;;;5067436;28;20597;-55
2023/10/06 13:01:32;;;;;;;11.13;4.73;;;;;;;;;;5067024;28;20452;-55
2023/10/06 13:03:59;;;;;;;5.63;3.30;;;;;;;;;;5054150;28;20469;-55
2023/10/06 13:06:29;;;;;;;4.30;2.90;;;;;;;;;;5058346;28;20449;-55
2023/10/06 13:09:01;;;;;;;5.03;3.43;;;;;;;;;;5052195;28;20453;-55
2023/10/06 13:11:29;;;;;;;6.37;4.10;;;;;;;;;;5054673;28;20445;-54
2023/10/06 13:13:57;;;;;;;7.40;3.00;;;;;;;;;;5058222;28;20935;-54
2023/10/06 13:16:25;;;;;;;4.60;3.40;;;;;;;;;;5065614;28;20441;-54
2023/10/06 13:18:52;;;;;;;4.47;3.23;;;;;;;;;;5066301;28;20511;-55
2023/10/06 13:21:19;;;;;;;4.80;3.33;;;;;;;;;;5066562;28;20440;-54
2023/10/06 13:23:46;;;;;;;3.83;3.30;;;;;;;;;;5057358;28;20537;-54
2023/10/06 13:26:14;;;;;;;5.50;3.13;;;;;;;;;;5065328;28;20525;-54
2023/10/06 13:28:42;;;;;;;5.27;3.83;;;;;;;;;;5065359;28;20439;-54
2023/10/06 13:31:10;;;;;;;3.97;3.17;;;;;;;;;;5065810;28;20444;-55
2023/10/06 13:33:38;;;;;;;5.07;3.27;;;;;;;;;;5065962;28;20555;-55
2023/10/06 13:36:06;;;;;;;4.83;3.50;;;;;;;;;;5066427;28;20924;-55
2023/10/06 13:38:34;;;;;;;5.80;3.40;;;;;;;;;;5066033;28;20488;-55
2023/10/06 13:41:04;;;;;;;6.33;4.13;;;;;;;;;;5066199;28;20563;-56
2023/10/06 13:43:31;;;;;;;4.63;3.63;;;;;;;;;;5059703;28;20544;-55
2023/10/06 13:45:59;;;;;;;4.87;3.10;;;;;;;;;;5065738;28;20448;-55
2023/10/06 13:48:30;;;;;;;5.77;3.70;;;;;;;;;;5065409;28;20806;-55
2023/10/06 13:50:59;;;;;;;4.67;3.33;;;;;;;;;;5065724;28;20925;-56
2023/10/06 13:53:26;;;;;;;8.70;3.53;;;;;;;;;;5065930;28;20907;-55
2023/10/06 13:55:55;;;;;;;5.93;3.53;;;;;;;;;;5066737;28;20476;-56
2023/10/06 13:58:23;;;;;;;4.93;3.30;;;;;;;;;;5066349;28;20575;-56
2023/10/06 14:00:50;;;;;;;4.60;3.00;;;;;;;;;;5066404;28;20436;-56
2023/10/06 14:03:18;;;;;;;4.20;3.20;;;;;;;;;;5060821;28;20527;-55
2023/10/06 14:05:51;;;;;;;5.93;4.10;;;;;;;;;;5066683;28;20445;-56
2023/10/06 14:08:19;;;;;;;13.43;5.13;;;;;;;;;;5066409;28;20902;-55
2023/10/06 14:10:46;;;;;;;4.63;2.93;;;;;;;;;;5052882;28;20969;-56
2023/10/06 14:13:21;;;;;;;4.60;3.10;;;;;;;;;;5055874;28;20523;-55
2023/10/06 14:15:54;;;;;;;4.60;3.50;;;;;;;;;;5059479;28;20444;-55
2023/10/06 14:18:24;;;;;;;5.30;3.43;;;;;;;;;;5066332;28;20827;-55
2023/10/06 14:20:57;;;;;;;5.03;3.40;;;;;;;;;;5066197;28;20556;-55
2023/10/06 14:23:28;;;;;;;4.27;3.00;;;;;;;;;;5066334;28;20474;-54
2023/10/06 14:25:59;;;;;;;4.83;3.20;;;;;;;;;;5066549;28;20950;-54
2023/10/06 14:28:27;;;;;;;4.10;3.07;;;;;;;;;;5066256;28;20476;-55
2023/10/06 14:30:56;;;;;;;3.80;2.87;;;;;;;;;;5066039;28;20452;-55
2023/10/06 14:33:28;;;;;;;7.90;4.10;;;;;;;;;;5066359;28;20471;-55
2023/10/06 14:36:20;;;;;;;5.03;3.30;;;;;;;;;;5066713;28;20444;-55
2023/10/06 14:47:02;;;;;;;5.33;3.10;;;;;;;;;;5068005;28;20423;-56
2023/10/06 14:49:29;;;;;;;5.40;3.23;;;;;;;;;;5069844;28;20518;-57
2023/10/06 14:52:01;;;;;;;4.50;2.77;;;;;;;;;;5062596;28;20860;-58
2023/10/06 14:54:31;;;;;;;4.77;2.97;;;;;;;;;;5069808;28;20462;-58
2023/10/06 14:56:58;;;;;;;4.63;3.10;;;;;;;;;;5070031;28;20443;-55
2023/10/06 14:59:31;;;;;;;4.80;3.70;;;;;;;;;;5069575;28;20501;-55
2023/10/06 15:01:58;;;;;;;4.50;3.07;;;;;;;;;;5069739;28;20475;-55
2023/10/06 15:04:25;;;;;;;4.50;2.97;;;;;;;;;;5069688;28;20464;-54
2023/10/06 15:06:52;;;;;;;3.77;2.73;;;;;;;;;;5069816;28;20476;-55
2023/10/06 15:09:21;;;;;;;4.00;3.20;;;;;;;;;;5069386;28;20494;-54